createdAt,value
2023-05-01T00:00:37.683Z,3.05
2023-05-01T00:01:09.418Z,3.58
2023-05-01T00:01:40.956Z,2.60
2023-05-01T00:02:12.483Z,2.58
2023-05-01T00:02:44.114Z,3.10
2023-05-01T00:03:18.046Z,2.70
2023-05-01T00:03:50.040Z,3.25
2023-05-01T00:04:22.805Z,2.78
2023-05-01T00:04:54.396Z,2.80
2023-05-01T00:05:26.313Z,3.05
2023-05-01T00:06:03.197Z,3.00
2023-05-01T00:06:34.824Z,2.85
2023-05-01T00:07:06.891Z,3.22
2023-05-01T00:07:38.753Z,2.92
2023-05-01T00:08:11.450Z,2.40
2023-05-01T00:08:43.323Z,2.92
2023-05-01T00:09:15.201Z,2.20
2023-05-01T00:09:47.018Z,2.88
2023-05-01T00:10:20.317Z,3.45
2023-05-01T00:10:51.847Z,2.80
2023-05-01T00:11:24.907Z,2.95
2023-05-01T00:11:56.561Z,2.63
2023-05-01T00:12:28.116Z,3.08
2023-05-01T00:12:59.625Z,3.50
2023-05-01T00:13:31.978Z,2.88
2023-05-01T00:14:04.033Z,3.33
2023-05-01T00:14:36.276Z,3.03
2023-05-01T00:15:08.517Z,2.53
2023-05-01T00:15:42.364Z,2.70
2023-05-01T00:16:14.221Z,3.28
2023-05-01T00:16:46.523Z,2.83
2023-05-01T00:17:18.168Z,3.58
2023-05-01T00:17:49.736Z,3.20
2023-05-01T00:18:24.128Z,3.13
2023-05-01T00:18:55.658Z,2.95
2023-05-01T00:19:27.235Z,2.80
2023-05-01T00:19:59.511Z,3.30
2023-05-01T00:20:31.458Z,3.58
2023-05-01T00:21:03.302Z,3.10
2023-05-01T00:21:34.892Z,2.72
2023-05-01T00:22:06.636Z,3.58
2023-05-01T00:22:38.219Z,5.28
2023-05-01T00:23:09.903Z,2.88
2023-05-01T00:23:41.447Z,2.70
2023-05-01T00:24:13.077Z,3.00
2023-05-01T00:24:45.507Z,3.13
2023-05-01T00:25:17.101Z,3.45
2023-05-01T00:25:49.511Z,3.00
2023-05-01T00:26:21.591Z,3.72
2023-05-01T00:26:54.004Z,2.83
2023-05-01T00:27:25.630Z,3.35
2023-05-01T00:27:58.692Z,3.13
2023-05-01T00:28:30.324Z,3.72
2023-05-01T00:29:02.031Z,3.13
2023-05-01T00:29:34.042Z,3.47
2023-05-01T00:30:07.406Z,2.88
2023-05-01T00:30:39.131Z,2.90
2023-05-01T00:31:10.659Z,2.72
2023-05-01T00:31:42.780Z,2.97
2023-05-01T00:32:15.432Z,3.70
2023-05-01T00:32:47.532Z,3.95
2023-05-01T00:33:19.510Z,3.67
2023-05-01T00:33:51.128Z,3.25
2023-05-01T00:34:22.831Z,3.22
2023-05-01T00:34:54.845Z,3.10
2023-05-01T00:35:26.547Z,3.35
2023-05-01T00:35:59.593Z,3.53
2023-05-01T00:36:31.971Z,3.20
2023-05-01T00:37:03.685Z,3.85
2023-05-01T00:37:35.347Z,3.63
2023-05-01T00:38:07.471Z,3.20
2023-05-01T00:38:39.352Z,3.55
2023-05-01T00:39:11.102Z,3.08
2023-05-01T00:39:42.652Z,3.63
2023-05-01T00:40:14.195Z,4.32
2023-05-01T00:40:46.588Z,3.95
2023-05-01T00:41:18.387Z,3.75
2023-05-01T00:41:49.951Z,3.97
2023-05-01T00:42:21.508Z,4.32
2023-05-01T00:42:53.397Z,3.88
2023-05-01T00:43:24.908Z,3.13
2023-05-01T00:43:56.572Z,3.67
2023-05-01T00:44:28.098Z,3.70
2023-05-01T00:44:59.646Z,4.20
2023-05-01T00:45:31.343Z,4.28
2023-05-01T00:46:03.512Z,3.58
2023-05-01T00:46:35.379Z,3.28
2023-05-01T00:47:07.085Z,3.72
2023-05-01T00:47:39.004Z,3.42
2023-05-01T00:48:11.113Z,3.75
2023-05-01T00:48:42.798Z,3.67
2023-05-01T00:49:14.955Z,3.63
2023-05-01T00:49:47.474Z,4.22
2023-05-01T00:50:19.231Z,3.13
2023-05-01T00:50:50.864Z,3.60
2023-05-01T00:51:22.882Z,3.42
2023-05-01T00:51:54.469Z,3.97
2023-05-01T00:52:26.119Z,4.07
2023-05-01T00:52:57.952Z,4.03
2023-05-01T00:53:29.597Z,3.20
2023-05-01T00:54:01.655Z,5.68
2023-05-01T00:54:33.458Z,3.67
2023-05-01T00:55:06.045Z,4.22
2023-05-01T00:55:39.292Z,3.45
2023-05-01T00:56:11.686Z,3.67
2023-05-01T00:56:43.354Z,3.53
2023-05-01T00:57:16.080Z,2.95
2023-05-01T00:57:47.746Z,3.38
2023-05-01T00:58:19.564Z,3.35
2023-05-01T00:58:54.106Z,2.90
2023-05-01T00:59:25.631Z,3.28
2023-05-01T00:59:57.830Z,3.42
2023-05-01T01:00:29.743Z,2.80
2023-05-01T01:01:02.249Z,4.07
2023-05-01T01:01:34.777Z,3.35
2023-05-01T01:02:06.696Z,3.38
2023-05-01T01:02:38.495Z,3.55
2023-05-01T01:03:11.631Z,4.15
2023-05-01T01:03:43.266Z,3.05
2023-05-01T01:04:14.908Z,3.47
2023-05-01T01:04:47.332Z,3.95
2023-05-01T01:05:21.989Z,3.70
2023-05-01T01:05:57.834Z,3.90
2023-05-01T01:06:47.019Z,3.10
2023-05-01T01:07:21.562Z,2.88
2023-05-01T01:08:37.120Z,3.53
2023-05-01T01:09:50.279Z,3.40
2023-05-01T01:10:31.025Z,3.10
2023-05-01T01:11:21.780Z,3.08
2023-05-01T01:12:01.801Z,2.60
2023-05-01T01:12:53.939Z,3.22
2023-05-01T01:13:25.700Z,3.50
2023-05-01T01:14:09.998Z,3.38
2023-05-01T01:14:51.726Z,2.90
2023-05-01T01:15:34.969Z,3.13
2023-05-01T01:16:13.919Z,3.97
2023-05-01T01:16:51.435Z,3.65
2023-05-01T01:17:44.269Z,3.17
2023-05-01T01:18:21.948Z,4.15
2023-05-01T01:19:15.311Z,3.22
2023-05-01T01:20:11.052Z,3.97
2023-05-01T01:20:49.738Z,2.90
2023-05-01T01:21:42.192Z,3.80
2023-05-01T01:22:16.178Z,3.58
2023-05-01T01:22:53.456Z,4.38
2023-05-01T01:23:27.840Z,5.22
2023-05-01T01:24:05.221Z,4.38
2023-05-01T01:25:14.863Z,5.28
2023-05-01T01:25:46.467Z,4.60
2023-05-01T01:26:28.825Z,4.00
2023-05-01T01:27:24.550Z,5.75
2023-05-01T01:28:08.471Z,5.00
2023-05-01T01:29:00.933Z,4.38
2023-05-01T01:29:57.738Z,4.00
2023-05-01T01:30:41.874Z,3.90
2023-05-01T01:31:32.171Z,4.72
2023-05-01T01:32:10.361Z,3.78
2023-05-01T01:32:50.824Z,4.20
2023-05-01T01:33:51.654Z,3.50
2023-05-01T01:34:40.457Z,3.03
2023-05-01T01:35:18.468Z,3.15
2023-05-01T01:35:58.066Z,3.28
2023-05-01T01:37:05.299Z,3.92
2023-05-01T01:37:43.348Z,4.47
2023-05-01T01:38:20.998Z,3.45
2023-05-01T01:39:18.413Z,3.25
2023-05-01T01:39:54.546Z,3.80
2023-05-01T01:40:33.845Z,3.55
2023-05-01T01:41:12.553Z,4.13
2023-05-01T01:41:49.023Z,5.40
2023-05-01T01:42:26.908Z,4.28
2023-05-01T01:43:05.689Z,3.60
2023-05-01T01:43:45.803Z,3.50
2023-05-01T01:44:23.188Z,3.97
2023-05-01T01:44:56.638Z,3.78
2023-05-01T01:45:37.705Z,4.00
2023-05-01T01:46:10.892Z,3.42
2023-05-01T01:46:42.820Z,3.28
2023-05-01T01:47:15.565Z,3.30
2023-05-01T01:47:47.647Z,3.50
2023-05-01T01:48:23.978Z,3.42
2023-05-01T01:48:56.363Z,3.00
2023-05-01T01:49:29.602Z,4.07
2023-05-01T01:50:04.424Z,4.53
2023-05-01T01:50:38.235Z,3.58
2023-05-01T01:51:13.411Z,3.17
2023-05-01T01:51:47.599Z,3.10
2023-05-01T01:52:20.534Z,3.53
2023-05-01T01:52:53.493Z,4.40
2023-05-01T01:53:26.795Z,3.38
2023-05-01T01:53:58.890Z,3.22
2023-05-01T01:54:33.685Z,3.35
2023-05-01T01:55:08.466Z,4.00
2023-05-01T01:55:40.700Z,3.03
2023-05-01T01:56:12.579Z,3.03
2023-05-01T01:56:44.596Z,3.58
2023-05-01T01:57:17.771Z,3.75
2023-05-01T01:57:50.665Z,3.92
2023-05-01T01:58:26.459Z,4.13
2023-05-01T01:59:01.500Z,3.00
2023-05-01T01:59:34.915Z,3.33
2023-05-01T02:00:11.158Z,3.35
2023-05-01T02:00:47.956Z,3.30
2023-05-01T02:01:20.876Z,3.75
2023-05-01T02:01:53.741Z,3.58
2023-05-01T02:02:27.270Z,4.00
2023-05-01T02:03:01.180Z,3.63
2023-05-01T02:03:33.637Z,3.10
2023-05-01T02:04:05.716Z,3.45
2023-05-01T02:04:37.958Z,3.63
2023-05-01T02:05:13.761Z,3.08
2023-05-01T02:05:46.669Z,3.63
2023-05-01T02:06:19.476Z,3.60
2023-05-01T02:06:52.127Z,3.47
2023-05-01T02:07:24.405Z,3.22
2023-05-01T02:07:56.945Z,4.38
2023-05-01T02:08:30.986Z,3.55
2023-05-01T02:09:06.484Z,3.25
2023-05-01T02:09:39.371Z,3.13
2023-05-01T02:10:13.305Z,3.53
2023-05-01T02:10:45.501Z,3.72
2023-05-01T02:11:19.415Z,3.97
2023-05-01T02:11:51.637Z,3.88
2023-05-01T02:12:23.997Z,3.60
2023-05-01T02:12:56.907Z,3.95
2023-05-01T02:13:29.672Z,4.10
2023-05-01T02:14:02.367Z,3.75
2023-05-01T02:14:34.246Z,3.92
2023-05-01T02:15:08.171Z,3.53
2023-05-01T02:15:40.691Z,3.28
2023-05-01T02:16:13.383Z,3.83
2023-05-01T02:16:45.266Z,3.55
2023-05-01T02:17:18.188Z,3.22
2023-05-01T02:17:51.283Z,4.07
2023-05-01T02:18:23.017Z,4.32
2023-05-01T02:18:55.994Z,3.80
2023-05-01T02:19:28.039Z,3.30
2023-05-01T02:19:59.815Z,3.72
2023-05-01T02:20:32.459Z,3.50
2023-05-01T02:21:04.474Z,3.95
2023-05-01T02:21:41.282Z,3.25
2023-05-01T02:22:13.812Z,3.55
2023-05-01T02:22:46.314Z,3.65
2023-05-01T02:23:18.113Z,3.60
2023-05-01T02:23:49.930Z,3.67
2023-05-01T02:24:24.049Z,4.43
2023-05-01T02:24:57.456Z,3.53
2023-05-01T02:25:31.844Z,2.88
2023-05-01T02:26:04.240Z,4.15
2023-05-01T02:26:49.887Z,3.50
2023-05-01T02:27:24.240Z,4.07
2023-05-01T02:27:57.017Z,3.90
2023-05-01T02:28:30.025Z,3.70
2023-05-01T02:29:01.623Z,3.53
2023-05-01T02:29:33.815Z,4.07
2023-05-01T02:30:06.901Z,3.58
2023-05-01T02:30:39.429Z,4.35
2023-05-01T02:31:11.580Z,3.78
2023-05-01T02:31:43.289Z,3.65
2023-05-01T02:32:14.934Z,3.53
2023-05-01T02:32:46.647Z,4.18
2023-05-01T02:33:18.431Z,3.47
2023-05-01T02:33:50.256Z,4.18
2023-05-01T02:34:22.348Z,3.38
2023-05-01T02:34:54.603Z,3.33
2023-05-01T02:35:26.758Z,3.47
2023-05-01T02:35:58.430Z,4.40
2023-05-01T02:36:29.987Z,5.22
2023-05-01T02:37:02.747Z,3.45
2023-05-01T02:37:34.561Z,3.50
2023-05-01T02:38:08.261Z,4.18
2023-05-01T02:38:39.830Z,3.90
2023-05-01T02:39:11.994Z,3.67
2023-05-01T02:39:43.561Z,3.10
2023-05-01T02:40:15.602Z,3.72
2023-05-01T02:40:50.614Z,3.28
2023-05-01T02:41:22.784Z,4.47
2023-05-01T02:41:59.013Z,4.07
2023-05-01T02:42:31.682Z,2.70
2023-05-01T02:43:04.139Z,4.20
2023-05-01T02:43:37.107Z,3.53
2023-05-01T02:44:10.205Z,3.05
2023-05-01T02:44:46.831Z,3.55
2023-05-01T02:45:22.772Z,4.57
2023-05-01T02:45:55.314Z,3.70
2023-05-01T02:46:27.391Z,3.75
2023-05-01T02:47:00.971Z,4.43
2023-05-01T02:47:35.632Z,3.92
2023-05-01T02:48:08.311Z,4.07
2023-05-01T02:48:40.516Z,4.47
2023-05-01T02:49:12.536Z,3.80
2023-05-01T02:49:44.883Z,3.75
2023-05-01T02:50:17.060Z,3.45
2023-05-01T02:50:49.725Z,4.85
2023-05-01T02:51:22.633Z,3.75
2023-05-01T02:51:54.376Z,3.92
2023-05-01T02:52:26.068Z,4.22
2023-05-01T02:53:08.521Z,4.57
2023-05-01T02:53:51.403Z,3.97
2023-05-01T02:54:26.406Z,3.70
2023-05-01T02:54:58.434Z,4.55
2023-05-01T02:55:30.289Z,3.85
2023-05-01T02:56:03.783Z,4.85
2023-05-01T02:56:35.701Z,3.70
2023-05-01T02:57:07.247Z,4.28
2023-05-01T02:57:38.910Z,4.32
2023-05-01T02:58:17.566Z,4.47
2023-05-01T02:58:51.779Z,4.82
2023-05-01T02:59:23.590Z,3.00
2023-05-01T02:59:56.568Z,3.60
2023-05-01T03:00:28.644Z,4.25
2023-05-01T03:01:00.588Z,3.63
2023-05-01T03:01:32.291Z,4.30
2023-05-01T03:02:04.615Z,3.75
2023-05-01T03:02:36.284Z,5.53
2023-05-01T03:03:07.884Z,4.30
2023-05-01T03:03:39.646Z,3.90
2023-05-01T03:04:11.260Z,3.85
2023-05-01T03:04:44.029Z,4.13
2023-05-01T03:05:15.721Z,3.75
2023-05-01T03:05:48.029Z,4.50
2023-05-01T03:06:19.771Z,4.28
2023-05-01T03:06:52.179Z,4.00
2023-05-01T03:07:24.442Z,4.20
2023-05-01T03:07:56.680Z,4.40
2023-05-01T03:08:28.279Z,3.92
2023-05-01T03:08:59.880Z,4.05
2023-05-01T03:09:31.977Z,4.65
2023-05-01T03:10:06.158Z,4.00
2023-05-01T03:10:40.723Z,4.25
2023-05-01T03:11:12.302Z,4.07
2023-05-01T03:11:43.820Z,4.18
2023-05-01T03:12:15.443Z,3.97
2023-05-01T03:12:46.975Z,4.38
2023-05-01T03:13:18.651Z,5.05
2023-05-01T03:13:50.348Z,4.57
2023-05-01T03:14:22.393Z,4.63
2023-05-01T03:14:53.939Z,4.07
2023-05-01T03:15:25.465Z,5.35
2023-05-01T03:15:57.065Z,4.22
2023-05-01T03:16:28.639Z,4.30
2023-05-01T03:17:00.386Z,4.53
2023-05-01T03:17:32.338Z,3.85
2023-05-01T03:18:04.647Z,4.25
2023-05-01T03:18:36.277Z,4.10
2023-05-01T03:19:08.014Z,4.07
2023-05-01T03:19:40.468Z,3.90
2023-05-01T03:20:12.561Z,4.18
2023-05-01T03:20:54.729Z,3.90
2023-05-01T03:21:26.696Z,4.25
2023-05-01T03:21:59.236Z,3.92
2023-05-01T03:22:33.126Z,3.78
2023-05-01T03:23:04.788Z,4.18
2023-05-01T03:23:38.369Z,4.47
2023-05-01T03:24:10.191Z,3.78
2023-05-01T03:24:42.193Z,3.30
2023-05-01T03:25:14.085Z,3.33
2023-05-01T03:25:45.922Z,3.75
2023-05-01T03:26:17.514Z,3.25
2023-05-01T03:26:49.062Z,3.70
2023-05-01T03:27:20.694Z,3.90
2023-05-01T03:27:54.825Z,4.35
2023-05-01T03:28:27.460Z,4.32
2023-05-01T03:28:59.132Z,4.10
2023-05-01T03:29:31.340Z,3.92
2023-05-01T03:30:04.704Z,3.55
2023-05-01T03:30:40.163Z,3.80
2023-05-01T03:31:11.725Z,3.78
2023-05-01T03:31:44.279Z,3.60
2023-05-01T03:32:17.891Z,4.05
2023-05-01T03:32:53.674Z,3.92
2023-05-01T03:33:31.689Z,3.85
2023-05-01T03:34:03.333Z,4.22
2023-05-01T03:34:35.018Z,4.15
2023-05-01T03:35:07.866Z,3.50
2023-05-01T03:35:39.791Z,3.53
2023-05-01T03:36:11.536Z,4.13
2023-05-01T03:36:43.034Z,3.78
2023-05-01T03:37:15.240Z,3.38
2023-05-01T03:37:47.141Z,4.50
2023-05-01T03:38:27.454Z,3.00
2023-05-01T03:39:14.219Z,3.83
2023-05-01T03:40:24.038Z,3.50
2023-05-01T03:41:14.123Z,3.67
2023-05-01T03:42:04.501Z,3.17
2023-05-01T03:42:41.626Z,3.65
2023-05-01T03:43:25.397Z,4.05
2023-05-01T03:43:57.973Z,4.00
2023-05-01T03:44:37.576Z,4.10
2023-05-01T03:45:09.738Z,3.90
2023-05-01T03:45:43.269Z,4.38
2023-05-01T03:46:16.337Z,3.63
2023-05-01T03:46:48.310Z,4.10
2023-05-01T03:47:27.939Z,3.78
2023-05-01T03:47:59.867Z,4.10
2023-05-01T03:48:31.434Z,4.43
2023-05-01T03:49:03.032Z,4.38
2023-05-01T03:49:38.797Z,4.18
2023-05-01T03:50:11.215Z,4.60
2023-05-01T03:50:46.512Z,4.07
2023-05-01T03:51:18.970Z,4.00
2023-05-01T03:51:51.503Z,4.30
2023-05-01T03:52:23.248Z,5.80
2023-05-01T03:52:56.580Z,3.97
2023-05-01T03:53:28.935Z,4.72
2023-05-01T03:54:01.025Z,4.03
2023-05-01T03:54:38.224Z,4.28
2023-05-01T03:55:27.989Z,3.72
2023-05-01T03:55:59.491Z,4.70
2023-05-01T03:56:35.564Z,3.65
2023-05-01T03:57:08.180Z,4.00
2023-05-01T03:57:39.760Z,4.70
2023-05-01T03:58:12.746Z,4.13
2023-05-01T03:58:44.805Z,5.13
2023-05-01T03:59:16.548Z,4.75
2023-05-01T03:59:48.095Z,3.65
2023-05-01T04:00:20.049Z,4.43
2023-05-01T04:00:57.119Z,5.10
2023-05-01T04:01:28.729Z,4.85
2023-05-01T04:02:00.870Z,4.50
2023-05-01T04:02:34.977Z,4.82
2023-05-01T04:03:06.702Z,5.00
2023-05-01T04:03:48.339Z,5.45
2023-05-01T04:04:20.045Z,4.70
2023-05-01T04:04:57.836Z,5.53
2023-05-01T04:05:30.417Z,5.20
2023-05-01T04:06:06.518Z,4.80
2023-05-01T04:06:38.140Z,4.78
2023-05-01T04:07:11.699Z,5.60
2023-05-01T04:07:43.665Z,4.50
2023-05-01T04:08:15.524Z,4.90
2023-05-01T04:08:47.054Z,4.30
2023-05-01T04:09:18.720Z,4.55
2023-05-01T04:09:50.439Z,4.32
2023-05-01T04:10:22.374Z,4.80
2023-05-01T04:11:01.082Z,4.68
2023-05-01T04:11:32.631Z,5.90
2023-05-01T04:12:04.447Z,4.53
2023-05-01T04:12:36.269Z,4.45
2023-05-01T04:13:08.156Z,4.97
2023-05-01T04:13:40.055Z,5.72
2023-05-01T04:14:11.934Z,4.68
2023-05-01T04:14:44.722Z,4.13
2023-05-01T04:15:17.331Z,4.38
2023-05-01T04:15:49.249Z,5.25
2023-05-01T04:16:21.142Z,4.18
2023-05-01T04:16:53.078Z,5.03
2023-05-01T04:17:25.490Z,4.50
2023-05-01T04:17:57.157Z,4.68
2023-05-01T04:18:29.037Z,4.78
2023-05-01T04:19:04.212Z,4.60
2023-05-01T04:19:38.585Z,5.13
2023-05-01T04:20:11.054Z,5.40
2023-05-01T04:20:43.052Z,5.82
2023-05-01T04:21:17.709Z,4.70
2023-05-01T04:21:50.904Z,5.63
2023-05-01T04:22:23.384Z,4.95
2023-05-01T04:22:55.096Z,5.03
2023-05-01T04:23:26.712Z,5.18
2023-05-01T04:24:01.891Z,4.95
2023-05-01T04:24:33.508Z,4.38
2023-05-01T04:25:05.748Z,5.35
2023-05-01T04:25:37.506Z,5.25
2023-05-01T04:26:15.387Z,5.57
2023-05-01T04:26:47.047Z,4.78
2023-05-01T04:27:19.673Z,4.95
2023-05-01T04:27:51.628Z,4.43
2023-05-01T04:28:23.290Z,4.20
2023-05-01T04:28:54.973Z,4.35
2023-05-01T04:29:29.517Z,4.90
2023-05-01T04:30:01.555Z,4.55
2023-05-01T04:30:34.534Z,4.75
2023-05-01T04:31:06.190Z,4.70
2023-05-01T04:31:37.780Z,5.25
2023-05-01T04:32:09.643Z,5.82
2023-05-01T04:32:41.488Z,4.80
2023-05-01T04:33:13.379Z,5.07
2023-05-01T04:33:45.100Z,4.88
2023-05-01T04:34:17.299Z,4.63
2023-05-01T04:34:49.513Z,5.05
2023-05-01T04:35:21.252Z,4.72
2023-05-01T04:35:52.810Z,5.22
2023-05-01T04:36:24.387Z,4.85
2023-05-01T04:36:57.302Z,5.60
2023-05-01T04:37:29.041Z,5.78
2023-05-01T04:38:01.011Z,5.05
2023-05-01T04:38:33.065Z,5.00
2023-05-01T04:39:05.461Z,5.40
2023-05-01T04:39:37.731Z,5.45
2023-05-01T04:40:11.656Z,4.85
2023-05-01T04:40:44.577Z,4.85
2023-05-01T04:41:16.298Z,4.55
2023-05-01T04:41:48.502Z,5.25
2023-05-01T04:42:20.283Z,5.28
2023-05-01T04:42:51.807Z,5.50
2023-05-01T04:43:23.571Z,5.00
2023-05-01T04:43:55.478Z,4.97
2023-05-01T04:44:27.330Z,4.78
2023-05-01T04:45:01.731Z,5.32
2023-05-01T04:45:33.617Z,4.30
2023-05-01T04:46:05.324Z,4.47
2023-05-01T04:46:37.615Z,5.03
2023-05-01T04:47:09.465Z,5.25
2023-05-01T04:47:41.205Z,4.57
2023-05-01T04:48:13.071Z,4.47
2023-05-01T04:48:44.716Z,4.93
2023-05-01T04:49:16.554Z,4.72
2023-05-01T04:49:48.070Z,4.30
2023-05-01T04:50:19.971Z,5.20
2023-05-01T04:50:51.916Z,5.00
2023-05-01T04:51:23.721Z,4.88
2023-05-01T04:51:56.277Z,5.40
2023-05-01T04:52:30.264Z,4.40
2023-05-01T04:53:04.668Z,4.70
2023-05-01T04:53:38.549Z,4.47
2023-05-01T04:54:16.864Z,4.90
2023-05-01T04:54:48.831Z,4.82
2023-05-01T04:55:20.673Z,4.78
2023-05-01T04:56:06.866Z,6.55
2023-05-01T04:56:38.582Z,4.43
2023-05-01T04:57:10.349Z,4.57
2023-05-01T04:57:42.011Z,5.18
2023-05-01T04:58:13.622Z,5.20
2023-05-01T04:58:45.300Z,5.07
2023-05-01T04:59:20.871Z,5.03
2023-05-01T04:59:52.789Z,4.43
2023-05-01T05:00:24.439Z,4.85
2023-05-01T05:01:00.519Z,4.60
2023-05-01T05:01:32.146Z,4.55
2023-05-01T05:02:03.974Z,5.05
2023-05-01T05:02:35.900Z,5.18
2023-05-01T05:03:07.936Z,5.47
2023-05-01T05:03:40.415Z,5.25
2023-05-01T05:04:13.565Z,5.50
2023-05-01T05:04:45.141Z,5.22
2023-05-01T05:05:16.784Z,5.40
2023-05-01T05:05:48.337Z,6.45
2023-05-01T05:06:20.166Z,4.85
2023-05-01T05:06:51.820Z,5.50
2023-05-01T05:07:34.246Z,4.88
2023-05-01T05:08:37.823Z,6.68
2023-05-01T05:09:14.478Z,5.60
2023-05-01T05:09:46.670Z,5.32
2023-05-01T05:10:18.602Z,4.97
2023-05-01T05:11:00.046Z,5.28
2023-05-01T05:11:35.567Z,6.30
2023-05-01T05:12:17.277Z,5.15
2023-05-01T05:12:48.962Z,5.28
2023-05-01T05:13:20.591Z,5.25
2023-05-01T05:13:58.944Z,5.90
2023-05-01T05:14:30.812Z,4.63
2023-05-01T05:15:02.421Z,5.07
2023-05-01T05:15:35.527Z,4.75
2023-05-01T05:16:08.408Z,4.63
2023-05-01T05:16:40.058Z,4.70
2023-05-01T05:17:11.685Z,5.25
2023-05-01T05:17:43.286Z,5.82
2023-05-01T05:18:15.044Z,4.00
2023-05-01T05:18:47.006Z,4.28
2023-05-01T05:19:18.560Z,5.43
2023-05-01T05:19:50.265Z,4.88
2023-05-01T05:20:21.878Z,4.78
2023-05-01T05:20:53.482Z,4.97
2023-05-01T05:21:25.110Z,4.75
2023-05-01T05:22:02.520Z,4.68
2023-05-01T05:22:37.714Z,5.30
2023-05-01T05:23:29.614Z,4.25
2023-05-01T05:24:01.376Z,4.85
2023-05-01T05:24:33.193Z,4.80
2023-05-01T05:25:06.746Z,4.63
2023-05-01T05:25:39.369Z,4.40
2023-05-01T05:26:10.962Z,4.47
2023-05-01T05:26:42.728Z,4.55
2023-05-01T05:27:14.330Z,4.20
2023-05-01T05:27:46.120Z,4.65
2023-05-01T05:28:18.266Z,5.05
2023-05-01T05:28:50.986Z,4.90
2023-05-01T05:29:22.832Z,5.22
2023-05-01T05:29:55.070Z,4.07
2023-05-01T05:30:27.358Z,5.28
2023-05-01T05:30:59.341Z,4.85
2023-05-01T05:31:31.430Z,5.07
2023-05-01T05:32:03.739Z,4.80
2023-05-01T05:32:35.409Z,4.68
2023-05-01T05:33:08.739Z,4.18
2023-05-01T05:33:41.204Z,4.60
2023-05-01T05:34:13.314Z,4.75
2023-05-01T05:34:44.885Z,4.78
2023-05-01T05:35:16.651Z,5.53
2023-05-01T05:35:49.262Z,4.60
2023-05-01T05:36:21.185Z,4.82
2023-05-01T05:36:53.527Z,5.80
2023-05-01T05:37:28.421Z,5.32
2023-05-01T05:38:00.687Z,5.53
2023-05-01T05:38:36.978Z,4.72
2023-05-01T05:39:10.582Z,4.75
2023-05-01T05:39:42.625Z,5.28
2023-05-01T05:40:14.707Z,4.85
2023-05-01T05:40:57.938Z,5.60
2023-05-01T05:41:29.700Z,5.93
2023-05-01T05:42:04.387Z,6.22
2023-05-01T05:42:36.269Z,5.15
2023-05-01T05:43:10.917Z,5.65
2023-05-01T05:43:42.743Z,6.15
2023-05-01T05:44:14.639Z,4.60
2023-05-01T05:44:47.415Z,5.65
2023-05-01T05:45:19.080Z,4.68
2023-05-01T05:45:51.670Z,5.97
2023-05-01T05:46:23.394Z,5.72
2023-05-01T05:46:54.983Z,5.72
2023-05-01T05:47:33.596Z,5.53
2023-05-01T05:48:06.148Z,5.13
2023-05-01T05:48:41.621Z,4.82
2023-05-01T05:49:13.615Z,5.55
2023-05-01T05:49:45.201Z,4.20
2023-05-01T05:50:16.822Z,5.22
2023-05-01T05:50:52.431Z,5.90
2023-05-01T05:51:24.054Z,5.65
2023-05-01T05:51:56.394Z,4.82
2023-05-01T05:52:28.027Z,5.50
2023-05-01T05:53:00.655Z,5.57
2023-05-01T05:53:32.242Z,6.28
2023-05-01T05:54:03.963Z,5.68
2023-05-01T05:54:39.478Z,5.53
2023-05-01T05:55:11.077Z,5.93
2023-05-01T05:55:43.588Z,5.45
2023-05-01T05:56:15.294Z,5.40
2023-05-01T05:56:47.204Z,4.93
2023-05-01T05:57:19.006Z,4.50
2023-05-01T05:57:55.855Z,4.50
2023-05-01T05:58:27.577Z,4.88
2023-05-01T05:59:02.924Z,5.32
2023-05-01T05:59:35.228Z,5.20
2023-05-01T06:00:09.359Z,5.40
2023-05-01T06:00:44.158Z,4.25
2023-05-01T06:01:16.290Z,4.47
2023-05-01T06:01:47.954Z,4.25
2023-05-01T06:02:20.355Z,4.45
2023-05-01T06:02:52.286Z,4.75
2023-05-01T06:03:25.417Z,4.47
2023-05-01T06:03:59.657Z,5.80
2023-05-01T06:04:33.218Z,4.38
2023-05-01T06:05:05.367Z,5.30
2023-05-01T06:05:37.110Z,4.78
2023-05-01T06:06:08.863Z,5.18
2023-05-01T06:06:40.637Z,4.93
2023-05-01T06:07:12.231Z,5.43
2023-05-01T06:07:44.022Z,5.07
2023-05-01T06:08:15.849Z,5.43
2023-05-01T06:08:47.392Z,5.20
2023-05-01T06:09:20.233Z,4.93
2023-05-01T06:09:52.036Z,4.65
2023-05-01T06:10:23.664Z,6.15
2023-05-01T06:10:55.844Z,4.03
2023-05-01T06:11:27.872Z,4.35
2023-05-01T06:11:59.633Z,4.40
2023-05-01T06:12:31.893Z,5.25
2023-05-01T06:13:14.104Z,5.47
2023-05-01T06:13:50.066Z,4.20
2023-05-01T06:14:21.965Z,4.25
2023-05-01T06:14:53.711Z,4.28
2023-05-01T06:15:25.330Z,5.60
2023-05-01T06:15:58.937Z,4.85
2023-05-01T06:16:31.086Z,4.82
2023-05-01T06:17:02.746Z,4.90
2023-05-01T06:17:35.571Z,3.92
2023-05-01T06:18:07.929Z,5.72
2023-05-01T06:18:39.946Z,4.50
2023-05-01T06:19:12.351Z,4.32
2023-05-01T06:19:45.240Z,3.95
2023-05-01T06:20:17.105Z,4.47
2023-05-01T06:20:49.087Z,4.45
2023-05-01T06:21:22.831Z,5.35
2023-05-01T06:21:54.588Z,4.70
2023-05-01T06:22:26.559Z,4.68
2023-05-01T06:23:10.487Z,4.88
2023-05-01T06:23:52.389Z,4.68
2023-05-01T06:24:30.045Z,4.43
2023-05-01T06:25:04.302Z,4.35
2023-05-01T06:25:37.453Z,4.32
2023-05-01T06:26:09.197Z,4.85
2023-05-01T06:26:40.801Z,4.95
2023-05-01T06:27:12.866Z,6.07
2023-05-01T06:27:44.438Z,4.22
2023-05-01T06:28:16.030Z,3.80
2023-05-01T06:28:47.634Z,4.50
2023-05-01T06:29:19.415Z,4.63
2023-05-01T06:29:51.402Z,5.43
2023-05-01T06:30:23.425Z,4.78
2023-05-01T06:30:55.149Z,4.65
2023-05-01T06:31:27.858Z,4.93
2023-05-01T06:32:01.444Z,4.47
2023-05-01T06:32:42.121Z,4.95
2023-05-01T06:33:14.017Z,4.75
2023-05-01T06:33:48.218Z,4.57
2023-05-01T06:34:28.094Z,5.15
2023-05-01T06:34:59.640Z,4.95
2023-05-01T06:35:31.770Z,4.45
2023-05-01T06:36:03.548Z,5.10
2023-05-01T06:36:35.761Z,5.18
2023-05-01T06:37:07.764Z,4.68
2023-05-01T06:37:39.607Z,4.57
2023-05-01T06:38:12.454Z,4.97
2023-05-01T06:38:48.675Z,4.82
2023-05-01T06:39:20.683Z,4.63
2023-05-01T06:39:55.337Z,5.72
2023-05-01T06:40:27.248Z,4.72
2023-05-01T06:40:59.379Z,4.43
2023-05-01T06:41:32.586Z,4.55
2023-05-01T06:42:04.674Z,4.18
2023-05-01T06:42:43.034Z,5.05
2023-05-01T06:43:14.662Z,4.45
2023-05-01T06:43:46.289Z,4.57
2023-05-01T06:44:18.075Z,4.95
2023-05-01T06:44:49.593Z,4.65
2023-05-01T06:45:21.459Z,4.75
2023-05-01T06:45:54.794Z,4.80
2023-05-01T06:46:26.437Z,6.60
2023-05-01T06:46:58.769Z,4.93
2023-05-01T06:47:30.473Z,5.38
2023-05-01T06:48:02.376Z,4.35
2023-05-01T06:48:34.067Z,4.65
2023-05-01T06:49:06.779Z,4.53
2023-05-01T06:49:39.919Z,5.18
2023-05-01T06:50:12.177Z,4.25
2023-05-01T06:50:43.693Z,4.78
2023-05-01T06:51:16.177Z,5.18
2023-05-01T06:51:47.801Z,4.35
2023-05-01T06:52:19.387Z,4.90
2023-05-01T06:52:50.911Z,4.13
2023-05-01T06:53:22.472Z,4.72
2023-05-01T06:53:54.016Z,4.35
2023-05-01T06:54:26.541Z,4.78
2023-05-01T06:54:58.507Z,4.38
2023-05-01T06:55:32.390Z,5.30
2023-05-01T06:56:05.963Z,4.60
2023-05-01T06:56:37.950Z,4.88
2023-05-01T06:57:09.459Z,4.88
2023-05-01T06:57:41.341Z,4.55
2023-05-01T06:58:23.293Z,4.15
2023-05-01T06:58:55.780Z,4.45
2023-05-01T06:59:27.370Z,3.83
2023-05-01T06:59:59.155Z,4.85
2023-05-01T07:00:31.019Z,4.15
2023-05-01T07:01:02.702Z,3.58
2023-05-01T07:01:35.649Z,3.78
2023-05-01T07:02:07.457Z,4.80
2023-05-01T07:02:40.904Z,4.15
2023-05-01T07:03:13.073Z,4.20
2023-05-01T07:03:45.100Z,3.80
2023-05-01T07:04:16.608Z,4.13
2023-05-01T07:04:48.171Z,4.55
2023-05-01T07:05:19.916Z,5.18
2023-05-01T07:05:51.498Z,3.70
2023-05-01T07:06:23.119Z,3.97
2023-05-01T07:06:54.737Z,3.53
2023-05-01T07:07:26.478Z,4.38
2023-05-01T07:08:01.116Z,3.90
2023-05-01T07:08:33.291Z,4.47
2023-05-01T07:09:05.409Z,4.32
2023-05-01T07:09:37.010Z,3.85
2023-05-01T07:10:08.858Z,4.75
2023-05-01T07:10:41.914Z,4.43
2023-05-01T07:11:13.877Z,3.72
2023-05-01T07:11:45.784Z,4.10
2023-05-01T07:12:17.273Z,4.18
2023-05-01T07:12:49.137Z,4.32
2023-05-01T07:13:20.762Z,4.25
2023-05-01T07:13:52.943Z,4.35
2023-05-01T07:14:24.537Z,4.25
2023-05-01T07:14:57.142Z,5.18
2023-05-01T07:15:28.651Z,4.72
2023-05-01T07:16:01.710Z,3.75
2023-05-01T07:16:33.379Z,4.53
2023-05-01T07:17:05.843Z,4.05
2023-05-01T07:17:37.821Z,4.15
2023-05-01T07:18:09.637Z,4.18
2023-05-01T07:18:41.241Z,4.10
2023-05-01T07:19:13.588Z,4.40
2023-05-01T07:19:45.099Z,4.22
2023-05-01T07:20:17.097Z,4.40
2023-05-01T07:20:50.253Z,4.57
2023-05-01T07:21:21.839Z,4.15
2023-05-01T07:21:53.980Z,3.67
2023-05-01T07:22:25.581Z,3.90
2023-05-01T07:22:57.144Z,4.05
2023-05-01T07:23:29.178Z,4.35
2023-05-01T07:24:00.824Z,3.92
2023-05-01T07:24:32.501Z,4.35
2023-05-01T07:25:04.321Z,4.47
2023-05-01T07:25:41.393Z,4.25
2023-05-01T07:26:13.032Z,4.80
2023-05-01T07:26:44.569Z,3.53
2023-05-01T07:27:16.166Z,4.65
2023-05-01T07:27:47.704Z,4.10
2023-05-01T07:28:20.485Z,4.00
2023-05-01T07:28:52.287Z,4.10
2023-05-01T07:29:23.891Z,3.30
2023-05-01T07:29:56.516Z,4.68